createdAt,value
2016-05-29T00:00:05.167Z,18.8
2016-05-29T00:00:15.182Z,18.7
2016-05-29T00:00:25.182Z,18.8
2016-05-29T00:00:35.198Z,18.7
2016-05-29T00:00:45.201Z,18.7
2016-05-29T00:00:55.201Z,18.7
2016-05-29T00:01:05.216Z,18.7
2016-05-29T00:01:15.248Z,18.7
2016-05-29T00:01:25.232Z,18.7
2016-05-29T00:01:44.388Z,18.7
2016-05-29T00:01:50.829Z,18.7
2016-05-29T00:02:00.844Z,18.7
2016-05-29T00:02:10.860Z,18.7
2016-05-29T00:02:20.860Z,18.7
2016-05-29T00:02:30.860Z,18.7
2016-05-29T00:02:40.876Z,18.7
2016-05-29T00:02:50.878Z,18.7
2016-05-29T00:03:00.878Z,18.6
2016-05-29T00:03:10.893Z,18.6
2016-05-29T00:03:20.893Z,18.6
2016-05-29T00:03:30.893Z,18.6
2016-05-29T00:03:40.909Z,18.7
2016-05-29T00:03:50.912Z,18.7
2016-05-29T00:04:00.928Z,18.7
2016-05-29T00:04:10.974Z,18.7
2016-05-29T00:04:20.943Z,18.8
2016-05-29T00:04:30.959Z,18.7
2016-05-29T00:04:40.959Z,18.7
2016-05-29T00:04:50.962Z,18.7
2016-05-29T00:05:00.977Z,18.8
2016-05-29T00:05:11.227Z,18.7
2016-05-29T00:05:20.977Z,18.7
2016-05-29T00:05:30.993Z,18.7
2016-05-29T00:05:41.524Z,18.7
2016-05-29T00:05:50.996Z,18.7
2016-05-29T00:06:01.059Z,18.7
2016-05-29T00:06:11.371Z,18.7
2016-05-29T00:06:21.027Z,18.7
2016-05-29T00:06:31.027Z,18.8
2016-05-29T00:06:41.074Z,18.8
2016-05-29T00:06:51.045Z,18.7
2016-05-29T00:07:01.045Z,18.8
2016-05-29T00:07:11.061Z,18.7
2016-05-29T00:07:21.076Z,18.7
2016-05-29T00:07:31.076Z,18.7
2016-05-29T00:07:41.076Z,18.7
2016-05-29T00:07:51.095Z,18.7
2016-05-29T00:08:01.110Z,18.7
2016-05-29T00:08:11.095Z,18.7
2016-05-29T00:08:21.110Z,18.7
2016-05-29T00:08:31.110Z,18.7
2016-05-29T00:08:41.126Z,18.7
2016-05-29T00:08:51.129Z,18.7
2016-05-29T00:09:01.129Z,18.6
2016-05-29T00:09:11.145Z,18.7
2016-05-29T00:09:21.145Z,18.7
2016-05-29T00:09:31.160Z,18.7
2016-05-29T00:09:41.160Z,18.6
2016-05-29T00:09:51.178Z,18.7
2016-05-29T00:10:01.178Z,18.6
2016-05-29T00:10:11.178Z,18.7
2016-05-29T00:10:21.225Z,18.7
2016-05-29T00:10:31.209Z,18.6
2016-05-29T00:10:41.209Z,18.6
2016-05-29T00:10:51.228Z,18.6
2016-05-29T00:11:01.228Z,18.6
2016-05-29T00:11:11.228Z,18.7
2016-05-29T00:11:21.243Z,18.6
2016-05-29T00:11:31.243Z,18.6
2016-05-29T00:11:41.243Z,18.7
2016-05-29T00:11:51.261Z,18.7
2016-05-29T00:12:01.261Z,18.6
2016-05-29T00:12:11.277Z,18.6
2016-05-29T00:12:21.292Z,18.6
2016-05-29T00:12:31.308Z,18.6
2016-05-29T00:12:41.292Z,18.6
2016-05-29T00:12:51.312Z,18.7
2016-05-29T00:13:01.312Z,18.7
2016-05-29T00:13:11.359Z,18.7
2016-05-29T00:13:21.328Z,18.6
2016-05-29T00:13:31.328Z,18.7
2016-05-29T00:13:41.328Z,18.6
2016-05-29T00:13:51.361Z,18.6
2016-05-29T00:14:01.345Z,18.7
2016-05-29T00:14:11.361Z,18.6
2016-05-29T00:14:21.361Z,18.6
2016-05-29T00:14:31.361Z,18.6
2016-05-29T00:14:41.376Z,18.6
2016-05-29T00:14:51.394Z,18.6
2016-05-29T00:15:01.394Z,18.6
2016-05-29T00:15:11.394Z,18.6
2016-05-29T00:15:21.394Z,18.6
2016-05-29T00:15:31.410Z,18.6
2016-05-29T00:15:41.410Z,18.7
2016-05-29T00:15:51.444Z,18.7
2016-05-29T00:16:01.428Z,18.6
2016-05-29T00:16:11.428Z,18.7
2016-05-29T00:16:21.444Z,18.6
2016-05-29T00:16:31.444Z,18.6
2016-05-29T00:16:41.460Z,18.6
2016-05-29T00:16:51.463Z,18.6
2016-05-29T00:17:01.463Z,18.7
2016-05-29T00:17:11.478Z,18.6
2016-05-29T00:17:21.494Z,18.5
2016-05-29T00:17:31.494Z,18.5
2016-05-29T00:17:41.728Z,18.6
2016-05-29T00:17:51.512Z,18.6
2016-05-29T00:18:01.512Z,18.7
2016-05-29T00:18:11.512Z,18.6
2016-05-29T00:18:21.575Z,18.6
2016-05-29T00:18:31.544Z,18.6
2016-05-29T00:18:41.544Z,18.7
2016-05-29T00:18:51.562Z,18.6
2016-05-29T00:19:01.594Z,18.7
2016-05-29T00:19:11.562Z,18.6
2016-05-29T00:19:21.578Z,18.6
2016-05-29T00:19:31.578Z,18.6
2016-05-29T00:19:41.594Z,18.6
2016-05-29T00:19:51.596Z,18.6
2016-05-29T00:20:01.596Z,18.5
2016-05-29T00:20:11.830Z,18.6
2016-05-29T00:20:21.627Z,18.6
2016-05-29T00:20:32.361Z,18.6
2016-05-29T00:20:41.783Z,18.7
2016-05-29T00:20:51.630Z,18.6
2016-05-29T00:21:01.645Z,18.6
2016-05-29T00:21:11.645Z,18.5
2016-05-29T00:21:21.645Z,18.6
2016-05-29T00:21:31.661Z,18.5
2016-05-29T00:21:41.661Z,18.5
2016-05-29T00:21:51.680Z,18.4
2016-05-29T00:22:01.680Z,18.5
2016-05-29T00:22:11.695Z,18.5
2016-05-29T00:22:21.695Z,18.5
2016-05-29T00:22:31.711Z,18.4
2016-05-29T00:22:41.711Z,18.5
2016-05-29T00:22:51.713Z,18.5
2016-05-29T00:23:01.744Z,18.6
2016-05-29T00:23:11.729Z,18.6
2016-05-29T00:23:21.744Z,18.6
2016-05-29T00:23:31.744Z,18.5
2016-05-29T00:23:41.760Z,18.5
2016-05-29T00:23:51.763Z,18.5
2016-05-29T00:24:01.763Z,18.5
2016-05-29T00:24:11.778Z,18.5
2016-05-29T00:24:21.778Z,18.5
2016-05-29T00:24:31.778Z,18.6
2016-05-29T00:24:41.794Z,18.5
2016-05-29T00:24:51.813Z,18.5
2016-05-29T00:25:01.813Z,18.5
2016-05-29T00:25:11.813Z,18.5
2016-05-29T00:25:21.828Z,18.5
2016-05-29T00:25:31.844Z,18.5
2016-05-29T00:25:41.844Z,18.5
2016-05-29T00:25:51.846Z,18.5
2016-05-29T00:26:01.846Z,18.5
2016-05-29T00:26:11.862Z,18.4
2016-05-29T00:26:21.862Z,18.5
2016-05-29T00:26:31.877Z,18.5
2016-05-29T00:26:41.877Z,18.6
2016-05-29T00:26:51.880Z,18.6
2016-05-29T00:27:01.896Z,18.5
2016-05-29T00:27:11.896Z,18.6
2016-05-29T00:27:21.911Z,18.5
2016-05-29T00:27:31.911Z,18.5
2016-05-29T00:27:41.927Z,18.5
2016-05-29T00:27:51.929Z,18.4
2016-05-29T00:28:01.929Z,18.5
2016-05-29T00:28:11.945Z,18.5
2016-05-29T00:28:21.945Z,18.4
2016-05-29T00:28:31.960Z,18.5
2016-05-29T00:28:41.976Z,18.4
2016-05-29T00:28:51.963Z,18.5
2016-05-29T00:29:01.979Z,18.5
2016-05-29T00:29:11.979Z,18.5
2016-05-29T00:29:21.995Z,18.5
2016-05-29T00:29:31.995Z,18.5
2016-05-29T00:29:42.026Z,18.5
2016-05-29T00:29:52.013Z,18.6
2016-05-29T00:30:02.013Z,18.5
2016-05-29T00:30:12.029Z,18.6
2016-05-29T00:30:22.029Z,18.5
2016-05-29T00:30:32.044Z,18.5
2016-05-29T00:30:42.044Z,18.4
2016-05-29T00:30:52.047Z,18.4
2016-05-29T00:31:02.063Z,18.5
2016-05-29T00:31:12.063Z,18.4
2016-05-29T00:31:22.079Z,18.4
2016-05-29T00:31:32.079Z,18.4
2016-05-29T00:31:42.094Z,18.5
2016-05-29T00:31:52.096Z,18.5
2016-05-29T00:32:02.096Z,18.5
2016-05-29T00:32:12.112Z,18.4
2016-05-29T00:32:22.112Z,18.5
2016-05-29T00:32:32.128Z,18.4
2016-05-29T00:32:42.128Z,18.4
2016-05-29T00:32:52.146Z,18.5
2016-05-29T00:33:02.162Z,18.5
2016-05-29T00:33:12.146Z,18.5
2016-05-29T00:33:22.162Z,18.4
2016-05-29T00:33:32.162Z,18.5
2016-05-29T00:33:42.177Z,18.5
2016-05-29T00:33:52.180Z,18.4
2016-05-29T00:34:02.180Z,18.5
2016-05-29T00:34:12.196Z,18.4
2016-05-29T00:34:22.196Z,18.4
2016-05-29T00:34:32.212Z,18.4
2016-05-29T00:34:42.212Z,18.5
2016-05-29T00:34:52.230Z,18.5
2016-05-29T00:35:02.230Z,18.4
2016-05-29T00:35:12.246Z,18.4
2016-05-29T00:35:22.699Z,18.5
2016-05-29T00:35:32.246Z,18.4
2016-05-29T00:35:42.262Z,18.5
2016-05-29T00:35:52.279Z,18.5
2016-05-29T00:36:02.264Z,18.5
2016-05-29T00:36:12.279Z,18.5
2016-05-29T00:36:22.279Z,18.6
2016-05-29T00:36:32.326Z,18.5
2016-05-29T00:36:42.295Z,18.5
2016-05-29T00:36:52.298Z,18.6
2016-05-29T00:37:02.313Z,18.5
2016-05-29T00:37:12.313Z,18.5
2016-05-29T00:37:22.313Z,18.5
2016-05-29T00:37:32.329Z,18.4
2016-05-29T00:37:42.329Z,18.4
2016-05-29T00:37:52.347Z,18.5
2016-05-29T00:38:02.347Z,18.5
2016-05-29T00:38:12.362Z,18.5
2016-05-29T00:38:22.362Z,18.5
2016-05-29T00:38:32.378Z,18.5
2016-05-29T00:38:42.378Z,18.5
2016-05-29T00:38:52.397Z,18.5
2016-05-29T00:39:02.397Z,18.4
2016-05-29T00:39:12.397Z,18.5
2016-05-29T00:39:22.412Z,18.5
2016-05-29T00:39:32.412Z,18.5
2016-05-29T00:39:42.428Z,18.5
2016-05-29T00:39:52.431Z,18.5
2016-05-29T00:40:02.446Z,18.5
2016-05-29T00:40:12.446Z,18.5
2016-05-29T00:40:22.462Z,18.5
2016-05-29T00:40:32.462Z,18.4
2016-05-29T00:40:42.462Z,18.5
2016-05-29T00:40:52.481Z,18.5
2016-05-29T00:41:02.481Z,18.5
2016-05-29T00:41:12.481Z,18.5
2016-05-29T00:41:22.496Z,18.5
2016-05-29T00:41:32.496Z,18.6
2016-05-29T00:41:42.496Z,18.5
2016-05-29T00:41:52.530Z,18.5
2016-05-29T00:42:02.530Z,18.6
2016-05-29T00:42:12.530Z,18.6
2016-05-29T00:42:22.530Z,18.6
2016-05-29T00:42:32.545Z,18.6
2016-05-29T00:42:42.545Z,18.6
2016-05-29T00:42:52.564Z,18.6
2016-05-29T00:43:02.564Z,18.6
2016-05-29T00:43:12.564Z,18.6
2016-05-29T00:43:22.579Z,18.6
2016-05-29T00:43:32.579Z,18.6
2016-05-29T00:43:42.595Z,18.5
2016-05-29T00:43:52.598Z,18.5
2016-05-29T00:44:02.598Z,18.5
2016-05-29T00:44:12.614Z,18.5
2016-05-29T00:44:22.614Z,18.6
2016-05-29T00:44:32.629Z,18.7
2016-05-29T00:44:42.629Z,18.6
2016-05-29T00:44:52.647Z,18.5
2016-05-29T00:45:02.647Z,18.5
2016-05-29T00:45:12.647Z,18.5
2016-05-29T00:45:22.663Z,18.6
2016-05-29T00:45:32.663Z,18.5
2016-05-29T00:45:42.678Z,18.7
2016-05-29T00:45:52.681Z,18.6
2016-05-29T00:46:02.697Z,18.5
2016-05-29T00:46:12.697Z,18.6
2016-05-29T00:46:22.697Z,18.6
2016-05-29T00:46:32.712Z,18.6
2016-05-29T00:46:42.712Z,18.6
2016-05-29T00:46:52.715Z,18.6
2016-05-29T00:47:02.731Z,18.5
2016-05-29T00:47:12.747Z,18.6
2016-05-29T00:47:22.747Z,18.6
2016-05-29T00:47:32.747Z,18.6
2016-05-29T00:47:42.762Z,18.5
2016-05-29T00:47:52.780Z,18.6
2016-05-29T00:48:02.764Z,18.6
2016-05-29T00:48:12.796Z,18.5
2016-05-29T00:48:22.796Z,18.5
2016-05-29T00:48:32.796Z,18.6
2016-05-29T00:48:42.796Z,18.6
2016-05-29T00:48:52.814Z,18.6
2016-05-29T00:49:02.814Z,18.6
2016-05-29T00:49:12.814Z,18.5
2016-05-29T00:49:22.830Z,18.7
2016-05-29T00:49:32.830Z,18.6
2016-05-29T00:49:42.845Z,18.7
2016-05-29T00:49:52.848Z,18.7
2016-05-29T00:50:02.864Z,18.7
2016-05-29T00:50:12.927Z,18.6
2016-05-29T00:50:23.145Z,18.7
2016-05-29T00:50:32.880Z,18.6
2016-05-29T00:50:42.880Z,18.6
2016-05-29T00:50:52.897Z,18.6
2016-05-29T00:51:02.897Z,18.7
2016-05-29T00:51:13.054Z,18.6
2016-05-29T00:51:23.257Z,18.7
2016-05-29T00:51:32.913Z,18.6
2016-05-29T00:51:42.929Z,18.6
2016-05-29T00:51:52.933Z,18.6
2016-05-29T00:52:02.933Z,18.6
2016-05-29T00:52:12.948Z,18.6
2016-05-29T00:52:22.948Z,18.5
2016-05-29T00:52:32.964Z,18.6
2016-05-29T00:52:42.964Z,18.7
2016-05-29T00:52:53.044Z,18.6
2016-05-29T00:53:02.981Z,18.6
2016-05-29T00:53:12.997Z,18.7
2016-05-29T00:53:22.997Z,18.6
2016-05-29T00:53:33.028Z,18.7
2016-05-29T00:53:43.013Z,18.7
2016-05-29T00:53:53.016Z,18.7
2016-05-29T00:54:03.031Z,18.7
2016-05-29T00:54:13.078Z,18.8
2016-05-29T00:54:23.047Z,18.8
2016-05-29T00:54:33.047Z,18.7
2016-05-29T00:54:43.063Z,18.7
2016-05-29T00:54:53.080Z,18.8
2016-05-29T00:55:03.065Z,18.7
2016-05-29T00:55:13.065Z,18.7
2016-05-29T00:55:23.080Z,18.7
2016-05-29T00:55:33.096Z,18.7
2016-05-29T00:55:43.111Z,18.7
2016-05-29T00:55:53.099Z,18.7
2016-05-29T00:56:03.130Z,18.7
2016-05-29T00:56:13.114Z,18.7
2016-05-29T00:56:23.114Z,18.6
2016-05-29T00:56:33.130Z,18.7
2016-05-29T00:56:43.130Z,18.7
2016-05-29T00:56:53.148Z,18.7
2016-05-29T00:57:03.148Z,18.7
2016-05-29T00:57:13.163Z,18.7
2016-05-29T00:57:23.163Z,18.7
2016-05-29T00:57:33.163Z,18.6
2016-05-29T00:57:43.179Z,18.7
2016-05-29T00:57:53.183Z,18.6
2016-05-29T00:58:03.183Z,18.7
2016-05-29T00:58:13.199Z,18.5
2016-05-29T00:58:23.214Z,18.7
2016-05-29T00:58:33.214Z,18.6
2016-05-29T00:58:43.261Z,18.7
2016-05-29T00:58:53.232Z,18.7
2016-05-29T00:59:03.232Z,18.7
2016-05-29T00:59:13.232Z,18.7
2016-05-29T00:59:23.294Z,18.6
2016-05-29T00:59:33.263Z,18.6
2016-05-29T00:59:43.263Z,18.7
2016-05-29T00:59:53.265Z,18.6
2016-05-29T01:00:03.296Z,18.6
2016-05-29T01:00:13.281Z,18.7
2016-05-29T01:00:23.281Z,18.6
2016-05-29T01:00:33.296Z,18.6
2016-05-29T01:00:43.312Z,18.6
2016-05-29T01:00:53.316Z,18.6
2016-05-29T01:01:03.316Z,18.5
2016-05-29T01:01:13.332Z,18.5
2016-05-29T01:01:23.332Z,18.5
2016-05-29T01:01:33.332Z,18.6
2016-05-29T01:01:43.347Z,18.5
2016-05-29T01:01:53.349Z,18.5
2016-05-29T01:02:03.365Z,18.5
2016-05-29T01:02:13.365Z,18.5
2016-05-29T01:02:23.380Z,18.5
2016-05-29T01:02:33.380Z,18.6
2016-05-29T01:02:43.396Z,18.5
2016-05-29T01:02:53.399Z,18.5
2016-05-29T01:03:03.399Z,18.6
2016-05-29T01:03:13.415Z,18.5
2016-05-29T01:03:23.415Z,18.5
2016-05-29T01:03:33.430Z,18.6
2016-05-29T01:03:43.430Z,18.5
2016-05-29T01:03:53.432Z,18.4
2016-05-29T01:04:03.448Z,18.4
2016-05-29T01:04:13.448Z,18.5
2016-05-29T01:04:23.448Z,18.5
2016-05-29T01:04:33.479Z,18.5
2016-05-29T01:04:43.464Z,18.5
2016-05-29T01:04:53.482Z,18.5
2016-05-29T01:05:03.498Z,18.5
2016-05-29T01:05:13.545Z,18.5
2016-05-29T01:05:23.670Z,18.5
2016-05-29T01:05:33.498Z,18.5
2016-05-29T01:05:43.513Z,18.5
2016-05-29T01:05:53.595Z,18.5
2016-05-29T01:06:03.704Z,18.5
2016-05-29T01:06:13.954Z,18.5
2016-05-29T01:06:23.548Z,18.4
2016-05-29T01:06:33.595Z,18.4
2016-05-29T01:06:43.548Z,18.5
2016-05-29T01:06:53.566Z,18.4
2016-05-29T01:07:03.566Z,18.4
2016-05-29T01:07:13.598Z,18.4
2016-05-29T01:07:23.582Z,18.5
2016-05-29T01:07:33.582Z,18.4
2016-05-29T01:07:43.598Z,18.4
2016-05-29T01:07:53.600Z,18.4
2016-05-29T01:08:03.615Z,18.5
2016-05-29T01:08:13.615Z,18.4
2016-05-29T01:08:23.631Z,18.5
2016-05-29T01:08:33.631Z,18.5
2016-05-29T01:08:43.631Z,18.5
2016-05-29T01:08:53.649Z,18.4
2016-05-29T01:09:03.649Z,18.5
2016-05-29T01:09:13.665Z,18.4
2016-05-29T01:09:23.665Z,18.4
2016-05-29T01:09:33.665Z,18.5
2016-05-29T01:09:43.681Z,18.5
2016-05-29T01:09:53.683Z,18.5
2016-05-29T01:10:03.698Z,18.5
2016-05-29T01:10:13.745Z,18.4
2016-05-29T01:10:23.714Z,18.4
2016-05-29T01:10:33.714Z,18.4
2016-05-29T01:10:43.730Z,18.5
2016-05-29T01:10:53.733Z,18.4
2016-05-29T01:11:03.748Z,18.5
2016-05-29T01:11:13.748Z,18.4
2016-05-29T01:11:23.748Z,18.4
2016-05-29T01:11:33.764Z,18.5
2016-05-29T01:11:43.842Z,18.4
2016-05-29T01:11:53.782Z,18.4
2016-05-29T01:12:03.782Z,18.4
2016-05-29T01:12:13.782Z,18.4
2016-05-29T01:12:23.814Z,18.4
2016-05-29T01:12:33.814Z,18.4
2016-05-29T01:12:43.798Z,18.4
2016-05-29T01:12:53.816Z,18.5
2016-05-29T01:13:03.816Z,18.4
2016-05-29T01:13:13.831Z,18.4
2016-05-29T01:13:23.831Z,18.4
2016-05-29T01:13:33.847Z,18.4
2016-05-29T01:13:43.847Z,18.4
2016-05-29T01:13:53.866Z,18.4
2016-05-29T01:14:03.866Z,18.4
2016-05-29T01:14:13.866Z,18.4
2016-05-29T01:14:23.881Z,18.4
2016-05-29T01:14:33.881Z,18.3
2016-05-29T01:14:43.897Z,18.3
2016-05-29T01:14:53.900Z,18.3
2016-05-29T01:15:03.900Z,18.4
2016-05-29T01:15:13.915Z,18.3
2016-05-29T01:15:23.915Z,18.3
2016-05-29T01:15:33.931Z,18.3
2016-05-29T01:15:43.931Z,18.4
2016-05-29T01:15:53.950Z,18.4
2016-05-29T01:16:03.950Z,18.5
2016-05-29T01:16:13.950Z,18.4
2016-05-29T01:16:23.965Z,18.4
2016-05-29T01:16:33.965Z,18.3
2016-05-29T01:16:43.965Z,18.3
2016-05-29T01:16:53.983Z,18.3
2016-05-29T01:17:03.983Z,18.3
2016-05-29T01:17:13.999Z,18.3
2016-05-29T01:17:23.999Z,18.4
2016-05-29T01:17:34.014Z,18.3
2016-05-29T01:17:44.014Z,18.3
2016-05-29T01:17:54.017Z,18.3
2016-05-29T01:18:04.064Z,18.3
2016-05-29T01:18:14.033Z,18.2
2016-05-29T01:18:24.048Z,18.3
2016-05-29T01:18:34.048Z,18.3
2016-05-29T01:18:44.064Z,18.3
2016-05-29T01:18:54.067Z,18.4
2016-05-29T01:19:04.098Z,18.3
2016-05-29T01:19:14.083Z,18.4
2016-05-29T01:19:24.083Z,18.3
2016-05-29T01:19:34.083Z,18.3
2016-05-29T01:19:44.098Z,18.2
2016-05-29T01:19:54.100Z,18.1
2016-05-29T01:20:04.116Z,18.3
2016-05-29T01:20:14.132Z,18.3
2016-05-29T01:20:24.725Z,18.3
2016-05-29T01:20:34.444Z,18.3
2016-05-29T01:20:44.147Z,18.3
2016-05-29T01:20:54.150Z,18.1
2016-05-29T01:21:04.791Z,18.3
2016-05-29T01:21:14.166Z,18.2
2016-05-29T01:21:24.166Z,18.2
2016-05-29T01:21:34.166Z,18.1
2016-05-29T01:21:44.181Z,18.1
2016-05-29T01:21:54.200Z,18.2
2016-05-29T01:22:04.200Z,18.2
2016-05-29T01:22:14.200Z,18.2
2016-05-29T01:22:24.216Z,18.2
2016-05-29T01:22:34.216Z,18.2
2016-05-29T01:22:44.216Z,18.1
2016-05-29T01:22:54.233Z,18.1
2016-05-29T01:23:04.249Z,18.1
2016-05-29T01:23:14.249Z,18.2
2016-05-29T01:23:24.249Z,18.2
2016-05-29T01:23:34.265Z,18.2
2016-05-29T01:23:44.296Z,18.3
2016-05-29T01:23:54.268Z,18.3
2016-05-29T01:24:04.283Z,18.2
2016-05-29T01:24:14.330Z,18.2
2016-05-29T01:24:24.283Z,18.2
2016-05-29T01:24:34.314Z,18.2
2016-05-29T01:24:44.314Z,18.2
2016-05-29T01:24:54.317Z,18
2016-05-29T01:25:04.317Z,18.1
2016-05-29T01:25:14.333Z,18
2016-05-29T01:25:24.333Z,18
2016-05-29T01:25:34.349Z,17.9
2016-05-29T01:25:44.349Z,18
2016-05-29T01:25:54.352Z,18
2016-05-29T01:26:04.367Z,18
2016-05-29T01:26:14.367Z,18
2016-05-29T01:26:24.383Z,18
2016-05-29T01:26:34.383Z,18
2016-05-29T01:26:44.383Z,18
2016-05-29T01:26:54.401Z,18
2016-05-29T01:27:04.401Z,18
2016-05-29T01:27:14.416Z,18
2016-05-29T01:27:24.416Z,17.9
2016-05-29T01:27:34.432Z,17.9
2016-05-29T01:27:44.447Z,17.9
2016-05-29T01:27:54.450Z,17.9
2016-05-29T01:28:04.450Z,17.9
2016-05-29T01:28:14.450Z,17.9
2016-05-29T01:28:24.466Z,17.8
2016-05-29T01:28:34.466Z,17.8
2016-05-29T01:28:44.466Z,17.7
2016-05-29T01:28:54.485Z,17.8
2016-05-29T01:29:04.485Z,17.9
2016-05-29T01:29:14.500Z,17.8
2016-05-29T01:29:24.516Z,17.8
2016-05-29T01:29:34.500Z,17.9
2016-05-29T01:29:44.516Z,17.8
2016-05-29T01:29:54.535Z,17.8
2016-05-29T01:30:04.535Z,17.9
2016-05-29T01:30:14.535Z,17.8
2016-05-29T01:30:24.550Z,17.8
2016-05-29T01:30:34.550Z,17.8
2016-05-29T01:30:44.566Z,17.8
2016-05-29T01:30:54.568Z,17.8
2016-05-29T01:31:04.568Z,17.8
2016-05-29T01:31:14.583Z,17.8
2016-05-29T01:31:24.599Z,17.9
2016-05-29T01:31:34.599Z,17.8
2016-05-29T01:31:44.599Z,17.7
2016-05-29T01:31:54.618Z,17.7
2016-05-29T01:32:04.618Z,17.8
2016-05-29T01:32:14.649Z,17.8
2016-05-29T01:32:24.633Z,17.7
2016-05-29T01:32:34.633Z,17.7
2016-05-29T01:32:44.649Z,17.8
2016-05-29T01:32:54.652Z,17.8
2016-05-29T01:33:04.652Z,17.9
2016-05-29T01:33:14.668Z,17.8
2016-05-29T01:33:24.668Z,17.8
2016-05-29T01:33:34.683Z,17.9
2016-05-29T01:33:44.683Z,17.8
2016-05-29T01:33:54.685Z,17.9
2016-05-29T01:34:04.701Z,17.9
2016-05-29T01:34:14.716Z,17.9
2016-05-29T01:34:24.716Z,17.9
2016-05-29T01:34:34.716Z,17.8
2016-05-29T01:34:44.732Z,17.8
2016-05-29T01:34:54.735Z,17.9
2016-05-29T01:35:05.048Z,17.7
2016-05-29T01:35:15.266Z,17.9
2016-05-29T01:35:25.344Z,17.9
2016-05-29T01:35:35.001Z,17.9
2016-05-29T01:35:44.766Z,17.9
2016-05-29T01:35:55.144Z,17.8
2016-05-29T01:36:04.785Z,17.8
2016-05-29T01:36:14.785Z,17.9
2016-05-29T01:36:24.832Z,17.9
2016-05-29T01:36:34.801Z,17.9
2016-05-29T01:36:44.816Z,17.9
2016-05-29T01:36:54.849Z,17.8
2016-05-29T01:37:04.818Z,17.8
2016-05-29T01:37:14.834Z,17.9
2016-05-29T01:37:24.834Z,17.9
2016-05-29T01:37:34.849Z,17.8
2016-05-29T01:37:44.849Z,17.9
2016-05-29T01:37:54.868Z,17.9
2016-05-29T01:38:04.868Z,17.9
2016-05-29T01:38:14.868Z,17.9
2016-05-29T01:38:24.884Z,18
2016-05-29T01:38:34.884Z,17.9
2016-05-29T01:38:44.899Z,17.8
2016-05-29T01:38:54.902Z,17.8
2016-05-29T01:39:04.934Z,17.8
2016-05-29T01:39:14.934Z,17.8
2016-05-29T01:39:24.918Z,17.8
2016-05-29T01:39:34.934Z,17.8
2016-05-29T01:39:44.949Z,17.8
2016-05-29T01:39:54.951Z,17.9
2016-05-29T01:40:04.951Z,17.8
2016-05-29T01:40:14.967Z,17.7
2016-05-29T01:40:24.967Z,17.8
2016-05-29T01:40:34.967Z,17.8
2016-05-29T01:40:44.982Z,17.8
2016-05-29T01:40:55.017Z,17.8
2016-05-29T01:41:04.985Z,17.9
2016-05-29T01:41:15.001Z,17.8
2016-05-29T01:41:25.001Z,17.8
2016-05-29T01:41:35.001Z,17.8
2016-05-29T01:41:45.017Z,17.8
2016-05-29T01:41:55.035Z,17.7
2016-05-29T01:42:05.035Z,17.8
2016-05-29T01:42:15.035Z,17.7
2016-05-29T01:42:25.051Z,17.8
2016-05-29T01:42:35.051Z,17.7
2016-05-29T01:42:45.051Z,17.7
2016-05-29T01:42:55.069Z,17.7
2016-05-29T01:43:05.069Z,17.6
2016-05-29T01:43:15.084Z,17.6
2016-05-29T01:43:25.084Z,17.8
2016-05-29T01:43:35.100Z,17.7
2016-05-29T01:43:45.100Z,17.8
2016-05-29T01:43:55.118Z,17.6
2016-05-29T01:44:05.118Z,17.7
2016-05-29T01:44:15.134Z,17.7
2016-05-29T01:44:25.134Z,17.7
2016-05-29T01:44:35.134Z,17.7
2016-05-29T01:44:45.150Z,17.8
2016-05-29T01:44:55.215Z,17.7
2016-05-29T01:45:05.168Z,17.7
2016-05-29T01:45:15.168Z,17.7
2016-05-29T01:45:25.168Z,17.8
2016-05-29T01:45:35.184Z,17.8
2016-05-29T01:45:45.184Z,17.9
2016-05-29T01:45:55.187Z,17.9
2016-05-29T01:46:05.203Z,17.8
2016-05-29T01:46:15.203Z,17.7
2016-05-29T01:46:25.218Z,17.8
2016-05-29T01:46:35.218Z,17.8
2016-05-29T01:46:45.234Z,17.8
2016-05-29T01:46:55.283Z,17.9
2016-05-29T01:47:05.236Z,17.8
2016-05-29T01:47:15.251Z,17.7
2016-05-29T01:47:25.251Z,17.9
2016-05-29T01:47:35.267Z,17.9
2016-05-29T01:47:45.267Z,17.8
2016-05-29T01:47:55.270Z,17.8
2016-05-29T01:48:05.286Z,17.9
2016-05-29T01:48:15.286Z,17.8
2016-05-29T01:48:25.286Z,17.8
2016-05-29T01:48:35.333Z,17.9
2016-05-29T01:48:45.301Z,17.8
2016-05-29T01:48:55.319Z,17.8
2016-05-29T01:49:05.366Z,17.9
2016-05-29T01:49:15.335Z,17.8
2016-05-29T01:49:25.335Z,17.8
2016-05-29T01:49:35.335Z,17.8
2016-05-29T01:49:45.350Z,17.8
2016-05-29T01:49:55.353Z,17.8
2016-05-29T01:50:05.369Z,17.7
2016-05-29T01:50:15.369Z,17.7
2016-05-29T01:50:25.400Z,17.8
2016-05-29T01:50:35.400Z,17.9
2016-05-29T01:50:45.916Z,17.8
2016-05-29T01:50:55.403Z,17.8
2016-05-29T01:51:05.419Z,17.8
2016-05-29T01:51:15.419Z,17.8
2016-05-29T01:51:25.466Z,17.8
2016-05-29T01:51:35.419Z,17.8
2016-05-29T01:51:45.450Z,17.7
2016-05-29T01:51:55.436Z,17.6
2016-05-29T01:52:05.499Z,17.7
2016-05-29T01:52:15.452Z,17.7
2016-05-29T01:52:25.468Z,17.7
2016-05-29T01:52:35.483Z,17.7
2016-05-29T01:52:45.483Z,17.7
2016-05-29T01:52:55.486Z,17.6
2016-05-29T01:53:05.486Z,17.7
2016-05-29T01:53:15.502Z,17.8
2016-05-29T01:53:25.502Z,17.7
2016-05-29T01:53:35.517Z,17.8
2016-05-29T01:53:45.517Z,17.8
2016-05-29T01:53:55.536Z,17.8
2016-05-29T01:54:05.536Z,17.8
2016-05-29T01:54:15.536Z,17.8
2016-05-29T01:54:25.552Z,17.7
2016-05-29T01:54:35.552Z,17.7
2016-05-29T01:54:45.552Z,17.8
2016-05-29T01:54:55.569Z,17.8
2016-05-29T01:55:05.569Z,17.8
2016-05-29T01:55:15.569Z,17.6
2016-05-29T01:55:25.585Z,17.8
2016-05-29T01:55:35.585Z,17.8
2016-05-29T01:55:45.601Z,17.7
2016-05-29T01:55:55.604Z,17.8
2016-05-29T01:56:05.619Z,17.7
2016-05-29T01:56:15.619Z,17.7
2016-05-29T01:56:25.619Z,17.8
2016-05-29T01:56:35.635Z,17.7
2016-05-29T01:56:45.635Z,17.8
2016-05-29T01:56:55.653Z,17.8
2016-05-29T01:57:05.653Z,17.8
2016-05-29T01:57:15.716Z,17.8
2016-05-29T01:57:25.669Z,17.8
2016-05-29T01:57:35.669Z,17.8
2016-05-29T01:57:45.685Z,17.8
2016-05-29T01:57:55.749Z,17.9
2016-05-29T01:58:05.702Z,17.8
2016-05-29T01:58:15.702Z,17.9
2016-05-29T01:58:25.702Z,17.9
2016-05-29T01:58:35.734Z,17.9
2016-05-29T01:58:45.718Z,17.7
2016-05-29T01:58:55.738Z,17.8
2016-05-29T01:59:05.738Z,17.9
2016-05-29T01:59:15.800Z,17.8
2016-05-29T01:59:25.784Z,17.8
2016-05-29T01:59:35.769Z,17.8
2016-05-29T01:59:45.769Z,17.7
2016-05-29T01:59:55.771Z,17.7
2016-05-29T02:00:05.786Z,17.8
2016-05-29T02:00:15.786Z,17.7
2016-05-29T02:00:25.786Z,17.8
2016-05-29T02:00:35.802Z,17.7
2016-05-29T02:00:45.802Z,17.7
2016-05-29T02:00:55.821Z,17.8
2016-05-29T02:01:05.821Z,17.6
2016-05-29T02:01:15.868Z,17.7
2016-05-29T02:01:25.836Z,17.6
2016-05-29T02:01:35.836Z,17.6
2016-05-29T02:01:45.852Z,17.6
2016-05-29T02:01:55.854Z,17.7
2016-05-29T02:02:05.870Z,17.7
2016-05-29T02:02:15.870Z,17.6
2016-05-29T02:02:25.870Z,17.7
2016-05-29T02:02:35.885Z,17.6
2016-05-29T02:02:45.885Z,17.6
2016-05-29T02:02:55.904Z,17.7
2016-05-29T02:03:05.982Z,17.7
2016-05-29T02:03:15.919Z,17.6
2016-05-29T02:03:25.919Z,17.6
2016-05-29T02:03:35.919Z,17.7
2016-05-29T02:03:46.044Z,17.7
2016-05-29T02:03:55.954Z,17.7
2016-05-29T02:04:05.954Z,17.7
2016-05-29T02:04:15.954Z,17.7
2016-05-29T02:04:25.969Z,17.7
2016-05-29T02:04:36.001Z,17.7
2016-05-29T02:04:45.969Z,17.7
2016-05-29T02:04:55.988Z,17.8
2016-05-29T02:05:06.019Z,17.7
2016-05-29T02:05:16.004Z,17.7
2016-05-29T02:05:26.800Z,17.6
2016-05-29T02:05:36.004Z,17.7
2016-05-29T02:05:46.019Z,17.7
2016-05-29T02:05:56.022Z,17.8
2016-05-29T02:06:06.475Z,17.8
2016-05-29T02:06:16.038Z,17.8
2016-05-29T02:06:26.038Z,17.8
2016-05-29T02:06:36.053Z,17.8
2016-05-29T02:06:46.053Z,17.7
2016-05-29T02:06:56.086Z,17.7
2016-05-29T02:07:06.070Z,17.8
2016-05-29T02:07:16.070Z,17.7
2016-05-29T02:07:26.086Z,17.7
2016-05-29T02:07:36.086Z,17.7
2016-05-29T02:07:46.101Z,17.8
2016-05-29T02:07:56.105Z,17.8
2016-05-29T02:08:06.121Z,17.8
2016-05-29T02:08:16.152Z,17.7
2016-05-29T02:08:26.121Z,17.7
2016-05-29T02:08:36.137Z,17.8
2016-05-29T02:08:46.152Z,17.8
2016-05-29T02:08:56.155Z,17.8
2016-05-29T02:09:06.155Z,17.9
2016-05-29T02:09:16.171Z,17.9
2016-05-29T02:09:26.171Z,17.9
2016-05-29T02:09:36.171Z,17.9
2016-05-29T02:09:46.186Z,17.9
2016-05-29T02:09:56.188Z,17.8
2016-05-29T02:10:06.188Z,17.8
2016-05-29T02:10:16.204Z,17.8
2016-05-29T02:10:26.204Z,17.9
2016-05-29T02:10:36.220Z,17.8
2016-05-29T02:10:46.220Z,17.8
2016-05-29T02:10:56.222Z,17.8
2016-05-29T02:11:06.237Z,17.7
2016-05-29T02:11:16.237Z,17.7
2016-05-29T02:11:26.253Z,17.8
2016-05-29T02:11:36.269Z,17.8
2016-05-29T02:11:46.269Z,17.7
2016-05-29T02:11:56.273Z,17.6
2016-05-29T02:12:06.288Z,17.7
2016-05-29T02:12:16.288Z,17.7
2016-05-29T02:12:26.288Z,17.6
2016-05-29T02:12:36.304Z,17.6
2016-05-29T02:12:46.304Z,17.7
2016-05-29T02:12:56.306Z,17.7
2016-05-29T02:13:06.321Z,17.6
2016-05-29T02:13:16.321Z,17.6
2016-05-29T02:13:26.337Z,17.6